FABN weather

CLOSED Barberton Municipal Airfield
Barberton, Mpumalanga, South Africa

Public forecast

Using degrees Celsius for public forecast. Weather courtesy of forecast.io.

Closest aviation weather report (METAR) to Barberton Municipal Airfield

Closest report is Kruger Mpumalanga International Airport, 24.2 nm (44.8 km) NNE. Retrieved 2020/01/26 19:00 UTC (1 hour ago):

FAKN 261900Z AUTO 03003KT //// // ////// 27/19 Q1014

Closest aviation forecast (TAF) to Barberton Municipal Airfield

Forecast is more than 12 hours old.

Closest forecast is Kruger Mpumalanga International Airport, 24.2 nm (44.8 km) NNE. Retrieved 2017/06/05 04:55 UTC (3 years ago):

TAF FAKN 050300Z 0504/0515 25006KT CAVOK BECMG 0511/0513 13005KT SCT030 BECMG 0513/0515 07005KT TX22/0513ZTN08/0504Z